Main page
METAR-TAF:

METAR-TAF

Airports :

Begumpet Airport

Hyderabad, India

latitude: 17-27N, longitude: 078-28E, elevation: 530 m

Current weather observation

The report was made 6 minutes ago, at 14:00 UTC
Wind 6 kt from the Northeast
Temperature 28°C
Humidity 35%
Pressure 1014 hPa
Visibility: 6000 m

METAR: VOHY 231400Z 05006KT 6000 NSC 28/11 Q1014 NOSIG

Time: 19:36 (14:06 UTC)

Forecast

The report was made 3 hours and 6 minutes ago, at 11:00 UTC
Forecast valid from 23 at 12 UTC to 23 at 21 UTC
Wind 6 kt from the West/Southwest
Visibility: 6000 m
Scattered clouds at a height of 1500 ft
Becoming
from 23 at 16 UTC to 23 at 18 UTC
Wind 6 kt from the South
Visibility: 5000 m
Few clouds at a height of 1500 ft
haze,

TAF: VOHY 231100Z 2312/2321 25006KT 6000 SCT015 BECMG 2316/2318 17006KT 5000 HZ FEW015

Weather observations and forecasts of more than 4000 airports (METAR and TAF reports).

The available stations are represented by yellow and red dots on the map.

Hover mouse over dot to see the name of the station.

Then click to see weather observations and forecasts.

To change the map : click on the green buttons with a black cross to zoom in, on the green button with a dash to zoom out, or on the green arrows for adjacent maps.


METAR-TAF: